Time;durP1;ratioP1;P1;durP2;ratioP2;P2;SDS_P1;SDS_P2;PMS_P1;PMS_P2;Temp;Humidity;BMP_temperature;BMP_pressure;BME280_temperature;BME280_humidity;BME280_pressure;Samples;Min_cycle;Max_cycle;Signal;HPM_P1;HPM_P2
2023/08/26 00:00:53;;;;;;;8.68;6.95;;;;;;;-140.66;100.00;55571.53;5114895;28;20497;-69
2023/08/26 00:04:37;;;;;;;11.18;7.43;;;;;;;-140.66;100.00;55571.53;5114168;28;20031;-68
2023/08/26 00:08:22;;;;;;;10.85;7.10;;;;;;;-140.66;100.00;55571.53;5114864;28;20047;-69
2023/08/26 00:12:06;;;;;;;10.57;7.07;;;;;;;-140.66;100.00;55571.53;5118289;28;20465;-70
2023/08/26 00:15:50;;;;;;;12.50;7.13;;;;;;;-140.66;100.00;55571.53;5118208;28;20080;-69
2023/08/26 00:19:34;;;;;;;12.15;7.63;;;;;;;-140.66;100.00;55571.53;5118796;28;20042;-69
2023/08/26 00:23:19;;;;;;;10.80;7.60;;;;;;;-140.66;100.00;55571.53;5118213;28;20034;-68
2023/08/26 00:27:03;;;;;;;14.27;8.13;;;;;;;-140.66;100.00;55571.53;5118333;28;20080;-68
2023/08/26 00:30:56;;;;;;;11.48;8.02;;;;;;;-140.66;100.00;55571.53;5116458;28;20343;-70
2023/08/26 00:34:40;;;;;;;10.18;7.93;;;;;;;-140.66;100.00;55571.53;5103323;28;20015;-68
2023/08/26 00:38:24;;;;;;;14.65;9.13;;;;;;;-140.66;100.00;55571.53;5118237;28;20059;-69
2023/08/26 00:42:08;;;;;;;14.80;8.48;;;;;;;-140.66;100.00;55571.53;5117587;28;20039;-69
2023/08/26 00:45:53;;;;;;;10.02;8.52;;;;;;;-140.66;100.00;55571.53;5117940;28;20059;-68
2023/08/26 00:49:37;;;;;;;13.43;9.20;;;;;;;-140.66;100.00;55571.53;5117344;28;20135;-68
2023/08/26 00:53:22;;;;;;;17.75;9.30;;;;;;;-140.66;100.00;55571.53;5117660;28;20036;-69
2023/08/26 00:57:08;;;;;;;29.58;10.15;;;;;;;-140.66;100.00;55571.53;5117188;28;20051;-68
2023/08/26 01:00:52;;;;;;;21.45;8.95;;;;;;;-140.66;100.00;55571.53;5117297;28;20059;-69
2023/08/26 01:04:37;;;;;;;16.50;9.23;;;;;;;-140.66;100.00;55571.53;5116926;28;20028;-69
2023/08/26 01:08:21;;;;;;;24.05;10.43;;;;;;;-140.66;100.00;55571.53;5118113;27;20023;-69
2023/08/26 01:12:48;;;;;;;17.23;10.07;;;;;;;-140.66;100.00;55571.53;5117702;28;20027;-70
2023/08/26 01:16:35;;;;;;;13.88;9.70;;;;;;;-140.66;100.00;55571.53;5093056;28;20040;-68
2023/08/26 01:20:36;;;;;;;15.13;9.63;;;;;;;-140.66;100.00;55571.53;5116845;28;20042;-69
2023/08/26 01:24:39;;;;;;;14.20;10.40;;;;;;;-140.66;100.00;55571.53;5116757;28;20110;-69
2023/08/26 01:28:23;;;;;;;11.82;9.50;;;;;;;-140.66;100.00;55571.53;5116913;28;20104;-68
2023/08/26 01:32:23;;;;;;;13.30;9.25;;;;;;;-140.66;100.00;55571.53;5116534;28;20095;-68
2023/08/26 01:36:13;;;;;;;14.75;9.73;;;;;;;-140.66;100.00;55571.53;5117385;28;20024;-69
2023/08/26 01:39:58;;;;;;;12.40;9.65;;;;;;;-140.66;100.00;55571.53;5116620;28;20445;-69
2023/08/26 01:43:43;;;;;;;11.82;9.73;;;;;;;-140.66;100.00;55571.53;5117403;28;20024;-69
2023/08/26 01:47:34;;;;;;;13.93;9.98;;;;;;;-140.66;100.00;55571.53;5115188;28;20507;-68
2023/08/26 01:51:19;;;;;;;14.88;9.93;;;;;;;-140.66;100.00;55571.53;5096475;28;20431;-68
2023/08/26 01:55:03;;;;;;;13.32;10.43;;;;;;;-140.66;100.00;55571.53;5096149;28;20016;-69
2023/08/26 01:58:47;;;;;;;14.45;10.68;;;;;;;-140.66;100.00;55571.53;5095831;28;20351;-69
2023/08/26 02:02:32;;;;;;;25.50;12.02;;;;;;;-140.66;100.00;55571.53;5095937;28;20036;-68
2023/08/26 02:06:16;;;;;;;18.67;11.65;;;;;;;-140.66;100.00;55571.53;5095045;28;20036;-68
2023/08/26 02:10:00;;;;;;;19.25;11.75;;;;;;;-140.66;100.00;55571.53;5094234;28;20092;-69
2023/08/26 02:13:44;;;;;;;15.90;12.02;;;;;;;-140.66;100.00;55571.53;5095349;28;20024;-68
2023/08/26 02:17:29;;;;;;;19.23;12.27;;;;;;;-140.66;100.00;55571.53;5094651;28;20377;-68
2023/08/26 02:21:13;;;;;;;16.02;11.57;;;;;;;-140.66;100.00;55571.53;5094806;28;20020;-69
2023/08/26 02:24:57;;;;;;;14.32;11.85;;;;;;;-140.66;100.00;55571.53;5095068;28;20042;-69
2023/08/26 02:28:42;;;;;;;13.00;11.50;;;;;;;-140.66;100.00;55571.53;5089564;28;20028;-69
2023/08/26 02:32:26;;;;;;;20.42;12.90;;;;;;;-140.66;100.00;55571.53;5093986;28;20019;-69
2023/08/26 02:36:10;;;;;;;16.73;12.85;;;;;;;-140.66;100.00;55571.53;5094182;28;20468;-70
2023/08/26 02:39:55;;;;;;;14.52;11.07;;;;;;;-140.66;100.00;55571.53;5094729;28;20043;-69
2023/08/26 02:43:39;;;;;;;17.15;11.85;;;;;;;-140.66;100.00;55571.53;5081650;28;20074;-68
2023/08/26 02:47:23;;;;;;;18.92;11.98;;;;;;;-140.66;100.00;55571.53;5081914;28;20039;-69
2023/08/26 02:51:08;;;;;;;16.33;11.68;;;;;;;-140.66;100.00;55571.53;5114951;28;20043;-69
2023/08/26 02:54:52;;;;;;;15.20;11.30;;;;;;;-140.66;100.00;55571.53;5114946;28;20079;-69
2023/08/26 02:58:37;;;;;;;20.75;12.80;;;;;;;-140.66;100.00;55571.53;5114865;28;20027;-69
2023/08/26 03:02:24;;;;;;;21.52;13.35;;;;;;;-140.66;100.00;55571.53;5115413;28;20525;-69
2023/08/26 03:06:08;;;;;;;27.55;14.15;;;;;;;-140.66;100.00;55571.53;5113951;28;20019;-69
2023/08/26 03:09:53;;;;;;;20.38;13.77;;;;;;;-140.66;100.00;55571.53;5114568;28;20038;-68
2023/08/26 03:13:37;;;;;;;29.27;13.55;;;;;;;-140.66;100.00;55571.53;5114205;28;20050;-70
2023/08/26 03:17:21;;;;;;;282.33;83.97;;;;;;;-140.66;100.00;55571.53;5116214;28;20040;-69
2023/08/26 03:21:06;;;;;;;28.13;10.35;;;;;;;-140.66;100.00;55571.53;5115104;28;20028;-70
2023/08/26 03:24:51;;;;;;;622.13;360.55;;;;;;;-140.66;100.00;55571.53;5115829;28;20024;-68
2023/08/26 03:28:35;;;;;;;320.75;27.15;;;;;;;-140.66;100.00;55571.53;5120743;28;20092;-69
2023/08/26 03:32:19;;;;;;;21.23;14.82;;;;;;;-140.66;100.00;55571.53;5118491;28;20043;-69
2023/08/26 03:36:04;;;;;;;54.45;16.33;;;;;;;-140.66;100.00;55571.53;5119479;28;20015;-69
2023/08/26 03:39:48;;;;;;;24.65;15.07;;;;;;;-140.66;100.00;55571.53;5119077;28;20073;-69
2023/08/26 03:43:35;;;;;;;23.17;15.40;;;;;;;-140.66;100.00;55571.53;5122225;28;20029;-68
2023/08/26 03:47:20;;;;;;;28.23;15.02;;;;;;;-140.66;100.00;55571.53;5123708;28;20039;-69
2023/08/26 03:51:05;;;;;;;26.98;13.57;;;;;;;-140.66;100.00;55571.53;5120643;28;20027;-69
2023/08/26 03:54:49;;;;;;;22.63;12.63;;;;;;;-140.66;100.00;55571.53;5118581;28;20027;-69
2023/08/26 03:58:33;;;;;;;15.82;10.90;;;;;;;-140.66;100.00;55571.53;5118766;28;20110;-69
2023/08/26 04:02:17;;;;;;;20.38;10.82;;;;;;;-140.66;100.00;55571.53;5117829;28;20066;-69
2023/08/26 04:06:05;;;;;;;27.27;10.68;;;;;;;-140.66;100.00;55571.53;5118281;28;20429;-69
2023/08/26 04:09:49;;;;;;;25.80;11.00;;;;;;;-140.66;100.00;55571.53;5118207;28;20035;-69
2023/08/26 04:13:33;;;;;;;15.20;9.73;;;;;;;-140.66;100.00;55571.53;5118304;28;20307;-69
2023/08/26 04:17:17;;;;;;;16.75;9.40;;;;;;;-140.66;100.00;55571.53;5130587;27;20019;-69
2023/08/26 04:21:02;;;;;;;20.17;8.95;;;;;;;-140.66;100.00;55571.53;5117446;28;20110;-69
2023/08/26 04:24:47;;;;;;;21.35;9.80;;;;;;;-140.66;100.00;55571.53;5117848;28;20343;-69
2023/08/26 04:28:31;;;;;;;21.40;9.52;;;;;;;-140.66;100.00;55571.53;5117720;28;20024;-69
2023/08/26 04:32:17;;;;;;;16.77;9.38;;;;;;;-140.66;100.00;55571.53;5118240;28;20024;-68
2023/08/26 04:36:02;;;;;;;18.25;8.85;;;;;;;-140.66;100.00;55571.53;5118995;28;20028;-68
2023/08/26 04:39:46;;;;;;;13.50;8.80;;;;;;;-140.66;100.00;55571.53;5119145;28;20449;-69
2023/08/26 04:43:31;;;;;;;11.05;8.45;;;;;;;-140.66;100.00;55571.53;5119898;28;20036;-69
2023/08/26 04:47:15;;;;;;;14.45;9.00;;;;;;;-140.66;100.00;55571.53;5116967;28;20334;-68
2023/08/26 04:50:59;;;;;;;17.80;9.35;;;;;;;-140.66;100.00;55571.53;5117457;28;20027;-69
2023/08/26 04:54:43;;;;;;;15.73;9.65;;;;;;;-140.66;100.00;55571.53;5116570;28;20050;-69
2023/08/26 04:58:28;;;;;;;12.15;8.93;;;;;;;-140.66;100.00;55571.53;5116672;28;20118;-70
2023/08/26 05:02:12;;;;;;;17.17;9.63;;;;;;;-140.66;100.00;55571.53;5116656;28;20050;-68
2023/08/26 05:05:56;;;;;;;13.13;10.00;;;;;;;-140.66;100.00;55571.53;5116588;28;20020;-69
2023/08/26 05:09:40;;;;;;;13.10;9.43;;;;;;;-140.66;100.00;55571.53;5116484;28;20019;-69
2023/08/26 05:13:25;;;;;;;13.75;9.10;;;;;;;-140.66;100.00;55571.53;5116811;28;20115;-70
2023/08/26 05:17:10;;;;;;;17.10;9.80;;;;;;;-140.66;100.00;55571.53;5117470;28;20092;-69
2023/08/26 05:20:54;;;;;;;17.45;9.60;;;;;;;-140.66;100.00;55571.53;5116288;28;20027;-70
2023/08/26 05:24:39;;;;;;;37.63;10.98;;;;;;;-140.66;100.00;55571.53;5117198;28;20028;-69
2023/08/26 05:28:23;;;;;;;14.55;9.10;;;;;;;-140.66;100.00;55571.53;5116349;28;20081;-69
2023/08/26 05:32:07;;;;;;;15.48;9.40;;;;;;;-140.66;100.00;55571.53;5116138;28;20036;-69
2023/08/26 05:35:51;;;;;;;25.65;10.63;;;;;;;-140.66;100.00;55571.53;5116740;28;20102;-69
2023/08/26 05:39:35;;;;;;;14.82;9.45;;;;;;;-140.66;100.00;55571.53;5116147;28;20114;-70
2023/08/26 05:43:20;;;;;;;14.77;9.60;;;;;;;-140.66;100.00;55571.53;5129060;27;20050;-69
2023/08/26 05:47:04;;;;;;;15.98;9.02;;;;;;;-140.66;100.00;55571.53;5114575;28;20106;-69
2023/08/26 05:50:48;;;;;;;12.65;10.18;;;;;;;-140.66;100.00;55571.53;5115353;28;20045;-70
2023/08/26 05:54:32;;;;;;;17.25;10.23;;;;;;;-140.66;100.00;55571.53;5115450;28;20484;-69
2023/08/26 05:58:16;;;;;;;12.63;9.75;;;;;;;-140.66;100.00;55571.53;5129129;27;20085;-70
2023/08/26 06:02:01;;;;;;;21.10;10.57;;;;;;;-140.66;100.00;55571.53;5115789;28;20024;-69
2023/08/26 06:05:45;;;;;;;17.27;10.70;;;;;;;-140.66;100.00;55571.53;5114764;28;20110;-69
2023/08/26 06:09:29;;;;;;;18.48;11.05;;;;;;;-140.66;100.00;55571.53;5115818;28;20043;-68
2023/08/26 06:13:13;;;;;;;11.80;10.23;;;;;;;-140.66;100.00;55571.53;5114797;28;20019;-68
2023/08/26 06:16:58;;;;;;;15.45;10.48;;;;;;;-140.66;100.00;55571.53;5115970;28;20357;-69
2023/08/26 06:20:42;;;;;;;17.23;11.13;;;;;;;-140.66;100.00;55571.53;5115638;28;20423;-69
2023/08/26 06:24:27;;;;;;;16.23;11.52;;;;;;;-140.66;100.00;55571.53;5115045;28;20122;-69
2023/08/26 06:28:11;;;;;;;12.35;10.50;;;;;;;-140.66;100.00;55571.53;5115370;28;20091;-69
2023/08/26 06:31:56;;;;;;;13.65;11.00;;;;;;;-140.66;100.00;55571.53;5114878;28;20515;-69
2023/08/26 06:35:40;;;;;;;15.48;11.30;;;;;;;-140.66;100.00;55571.53;5115483;28;20027;-69
2023/08/26 06:39:24;;;;;;;13.98;10.90;;;;;;;-140.66;100.00;55571.53;5114782;28;20028;-70
2023/08/26 06:43:08;;;;;;;13.65;11.27;;;;;;;-140.66;100.00;55571.53;5114757;28;20035;-69
2023/08/26 06:46:52;;;;;;;15.80;11.50;;;;;;;-140.66;100.00;55571.53;5113521;28;20063;-69
2023/08/26 06:50:37;;;;;;;13.48;11.50;;;;;;;-140.66;100.00;55571.53;5114674;28;20040;-69
2023/08/26 06:54:21;;;;;;;14.90;11.45;;;;;;;-140.66;100.00;55571.53;5114868;28;20114;-71
2023/08/26 06:58:05;;;;;;;16.50;12.93;;;;;;;-140.66;100.00;55571.53;5114946;28;20073;-70
2023/08/26 07:01:50;;;;;;;16.60;12.15;;;;;;;-140.66;100.00;55571.53;5115030;28;20027;-71
2023/08/26 07:05:34;;;;;;;16.17;12.43;;;;;;;-140.66;100.00;55571.53;5114862;28;20400;-69
2023/08/26 07:09:18;;;;;;;17.58;12.00;;;;;;;-140.66;100.00;55571.53;5114135;28;20038;-69
2023/08/26 07:13:02;;;;;;;14.32;11.90;;;;;;;-140.66;100.00;55571.53;5114825;28;20031;-69
2023/08/26 07:16:48;;;;;;;14.27;12.77;;;;;;;-140.66;100.00;55571.53;5112829;28;20027;-69
2023/08/26 07:20:32;;;;;;;15.48;12.38;;;;;;;-140.66;100.00;55571.53;5114172;28;20090;-70
2023/08/26 07:24:16;;;;;;;19.98;12.20;;;;;;;-140.66;100.00;55571.53;5113971;28;20032;-70
2023/08/26 07:28:01;;;;;;;16.20;12.23;;;;;;;-140.66;100.00;55571.53;5114657;28;20096;-70
2023/08/26 07:31:45;;;;;;;15.35;12.77;;;;;;;-140.66;100.00;55571.53;5127550;27;20524;-69
2023/08/26 07:35:29;;;;;;;16.05;12.20;;;;;;;-140.66;100.00;55571.53;5114226;28;20031;-71
2023/08/26 07:39:13;;;;;;;20.48;12.52;;;;;;;-140.66;100.00;55571.53;5114799;28;20060;-69
2023/08/26 07:42:59;;;;;;;17.65;12.43;;;;;;;-140.66;100.00;55571.53;5114404;28;20115;-70
2023/08/26 07:46:43;;;;;;;16.98;12.50;;;;;;;-140.66;100.00;55571.53;5114825;28;20028;-70
2023/08/26 07:50:28;;;;;;;17.80;12.20;;;;;;;-140.66;100.00;55571.53;5114031;28;20047;-70
2023/08/26 07:54:13;;;;;;;15.63;12.07;;;;;;;-140.66;100.00;55571.53;5114327;28;20358;-71
2023/08/26 07:57:57;;;;;;;14.73;11.93;;;;;;;-140.66;100.00;55571.53;5113421;28;20030;-70
2023/08/26 08:01:41;;;;;;;20.48;11.95;;;;;;;-140.66;100.00;55571.53;5114411;28;20119;-69
2023/08/26 08:05:25;;;;;;;19.13;11.70;;;;;;;-140.66;100.00;55571.53;5114651;28;20343;-69
2023/08/26 08:09:10;;;;;;;16.52;12.18;;;;;;;-140.66;100.00;55571.53;5114083;28;20032;-69
2023/08/26 08:12:54;;;;;;;16.73;12.10;;;;;;;-140.66;100.00;55571.53;5112872;28;20020;-69
2023/08/26 08:16:38;;;;;;;24.00;12.38;;;;;;;-140.66;100.00;55571.53;5114163;28;20015;-70
2023/08/26 08:20:23;;;;;;;20.70;11.90;;;;;;;-140.66;100.00;55571.53;5113433;28;20046;-69
2023/08/26 08:24:07;;;;;;;17.15;11.73;;;;;;;-140.66;100.00;55571.53;5113929;28;20041;-71
2023/08/26 08:27:51;;;;;;;346.25;39.33;;;;;;;-140.66;100.00;55571.53;5113613;28;20035;-72
2023/08/26 08:31:35;;;;;;;832.38;313.48;;;;;;;-140.66;100.00;55571.53;5117966;28;20464;-69
2023/08/26 08:35:20;;;;;;;24.35;11.52;;;;;;;-140.66;100.00;55571.53;5117875;28;20460;-70
2023/08/26 08:38:44;;;;;;;17.33;11.52;;;;;;;-140.66;100.00;55571.53;5117069;28;20059;-69
2023/08/26 08:42:32;;;;;;;15.43;11.45;;;;;;;-140.66;100.00;55571.53;5117704;28;20027;-69
2023/08/26 08:46:18;;;;;;;15.48;11.20;;;;;;;-140.66;100.00;55571.53;5102447;28;20028;-69
2023/08/26 08:50:02;;;;;;;15.73;11.52;;;;;;;-140.66;100.00;55571.53;5118494;28;20036;-69
2023/08/26 08:53:51;;;;;;;13.93;11.50;;;;;;;-140.66;100.00;55571.53;5117200;28;20019;-69
2023/08/26 08:57:35;;;;;;;15.60;11.32;;;;;;;-140.66;100.00;55571.53;5116904;28;20019;-69
2023/08/26 09:01:23;;;;;;;14.20;11.18;;;;;;;-140.66;100.00;55571.53;5116903;28;20091;-70
2023/08/26 09:05:08;;;;;;;16.52;11.98;;;;;;;-140.66;100.00;55571.53;5116936;28;20024;-69
2023/08/26 09:08:53;;;;;;;17.55;11.30;;;;;;;-140.66;100.00;55571.53;5116360;28;20088;-69
2023/08/26 09:12:38;;;;;;;15.65;11.60;;;;;;;-140.66;100.00;55571.53;5116769;28;20024;-71
2023/08/26 09:16:28;;;;;;;14.75;11.43;;;;;;;-140.66;100.00;55571.53;5116628;28;20077;-70
2023/08/26 09:20:12;;;;;;;14.50;10.68;;;;;;;-140.66;100.00;55571.53;5116938;28;20023;-70
2023/08/26 09:24:03;;;;;;;18.25;11.90;;;;;;;-140.66;100.00;55571.53;5117378;28;20028;-69
2023/08/26 09:27:58;;;;;;;12.82;10.23;;;;;;;-140.66;100.00;55571.53;5116929;28;20023;-70
2023/08/26 09:31:59;;;;;;;13.38;11.05;;;;;;;-140.66;100.00;55571.53;5116054;28;20058;-70
2023/08/26 09:35:49;;;;;;;17.38;10.63;;;;;;;-140.66;100.00;55571.53;5116277;28;20485;-70
2023/08/26 09:39:46;;;;;;;20.08;10.55;;;;;;;-140.66;100.00;55571.53;5116621;28;20096;-69
2023/08/26 09:43:30;;;;;;;10.85;9.27;;;;;;;-140.66;100.00;55571.53;5116507;28;20091;-69
2023/08/26 09:47:18;;;;;;;12.18;9.80;;;;;;;-140.66;100.00;55571.53;5116948;28;20029;-69
2023/08/26 09:51:05;;;;;;;14.18;9.20;;;;;;;-140.66;100.00;55571.53;5116339;28;20028;-71
2023/08/26 09:54:53;;;;;;;10.82;8.18;;;;;;;-140.66;100.00;55571.53;5116691;28;20088;-70
2023/08/26 09:58:37;;;;;;;14.95;9.55;;;;;;;-140.66;100.00;55571.53;5116185;28;20396;-70
2023/08/26 10:02:22;;;;;;;14.82;9.80;;;;;;;-140.66;100.00;55571.53;5115250;28;20023;-69
2023/08/26 10:06:12;;;;;;;9.70;8.70;;;;;;;-140.66;100.00;55571.53;5115738;28;20489;-69
2023/08/26 10:10:11;;;;;;;12.40;9.20;;;;;;;-140.66;100.00;55571.53;5114732;28;20035;-69
2023/08/26 10:14:00;;;;;;;14.30;9.13;;;;;;;-140.66;100.00;55571.53;5115855;28;20483;-68
2023/08/26 10:17:48;;;;;;;14.70;8.77;;;;;;;-140.66;100.00;55571.53;5115860;28;20042;-70
2023/08/26 10:21:33;;;;;;;13.68;8.05;;;;;;;-140.66;100.00;55571.53;5114752;28;20080;-70
2023/08/26 10:25:18;;;;;;;9.80;8.10;;;;;;;-140.66;100.00;55571.53;5115378;28;20039;-68
2023/08/26 10:29:03;;;;;;;9.85;8.18;;;;;;;-140.66;100.00;55571.53;5115600;28;20084;-70
2023/08/26 10:32:47;;;;;;;9.98;7.40;;;;;;;-140.66;100.00;55571.53;5114941;28;20403;-70
2023/08/26 10:36:33;;;;;;;10.07;8.05;;;;;;;-140.66;100.00;55571.53;5114275;28;20058;-69
2023/08/26 10:40:30;;;;;;;12.32;8.00;;;;;;;-140.66;100.00;55571.53;5115837;28;20115;-69
2023/08/26 10:44:14;;;;;;;25.02;8.73;;;;;;;-140.66;100.00;55571.53;5113339;28;20027;-70
2023/08/26 10:48:00;;;;;;;776.10;52.35;;;;;;;-140.66;100.00;55571.53;5113119;28;20489;-70
2023/08/26 10:52:15;;;;;;;14.10;7.30;;;;;;;-140.66;100.00;55571.53;5114741;28;20027;-70
2023/08/26 10:56:18;;;;;;;52.58;10.15;;;;;;;-140.66;100.00;55571.53;5114859;28;20036;-70
2023/08/26 11:00:07;;;;;;;60.10;10.82;;;;;;;-140.66;100.00;55571.53;5128080;27;20032;-69
2023/08/26 11:03:52;;;;;;;12.82;7.60;;;;;;;-140.66;100.00;55571.53;5114783;28;20023;-70
2023/08/26 11:07:36;;;;;;;9.80;7.75;;;;;;;-140.66;100.00;55571.53;5115065;28;20115;-70
2023/08/26 11:11:27;;;;;;;91.75;11.90;;;;;;;-140.66;100.00;55571.53;5114198;28;20031;-68
2023/08/26 11:15:07;;;;;;;13.95;8.18;;;;;;;-140.66;100.00;55571.53;5115060;28;20024;-70
2023/08/26 11:18:46;;;;;;;21.88;10.60;;;;;;;-140.66;100.00;55571.53;5114690;28;20023;-70
2023/08/26 11:22:29;;;;;;;75.18;42.38;;;;;;;-140.66;100.00;55571.53;5114456;28;20028;-71
2023/08/26 11:26:05;;;;;;;442.70;141.35;;;;;;;-140.66;100.00;55571.53;5113914;28;20024;-69
2023/08/26 11:29:47;;;;;;;20.40;16.27;;;;;;;-140.66;100.00;55571.53;5114189;28;20031;-70
2023/08/26 11:33:31;;;;;;;57.38;50.58;;;;;;;-140.66;100.00;55571.53;5114001;28;20023;-69
2023/08/26 11:37:21;;;;;;;505.45;177.02;;;;;;;-140.66;100.00;55571.53;5114290;28;20092;-69
2023/08/26 11:41:06;;;;;;;14.82;7.80;;;;;;;-140.66;100.00;55571.53;5107454;28;20028;-70
2023/08/26 11:44:50;;;;;;;10.30;8.23;;;;;;;-140.66;100.00;55571.53;5114374;28;20361;-69
2023/08/26 11:48:37;;;;;;;11.18;8.00;;;;;;;-140.66;100.00;55571.53;5113705;28;20044;-72
2023/08/26 11:52:35;;;;;;;12.13;8.35;;;;;;;-140.66;100.00;55571.53;5114780;28;20016;-69
2023/08/26 11:56:21;;;;;;;16.10;8.18;;;;;;;-140.66;100.00;55571.53;5114463;28;20089;-70
2023/08/26 12:00:16;;;;;;;9.32;7.80;;;;;;;-140.66;100.00;55571.53;5114425;28;20024;-70
2023/08/26 12:04:11;;;;;;;11.43;7.78;;;;;;;-140.66;100.00;55571.53;5113757;28;20346;-70
2023/08/26 12:07:56;;;;;;;8.50;7.22;;;;;;;-140.66;100.00;55571.53;5118234;28;20028;-69
2023/08/26 12:11:44;;;;;;;12.63;7.50;;;;;;;-140.66;100.00;55571.53;5117460;28;20035;-70
2023/08/26 12:15:29;;;;;;;16.70;8.02;;;;;;;-140.66;100.00;55571.53;5116331;28;20030;-69
2023/08/26 12:19:14;;;;;;;10.38;7.18;;;;;;;-140.66;100.00;55571.53;5118214;28;20452;-70
2023/08/26 12:23:01;;;;;;;10.85;7.13;;;;;;;-140.66;100.00;55571.53;5118068;28;20031;-70
2023/08/26 12:26:41;;;;;;;390.48;57.97;;;;;;;-140.66;100.00;55571.53;5118007;28;20028;-69
2023/08/26 12:30:19;;;;;;;347.02;127.32;;;;;;;-140.66;100.00;55571.53;5117206;28;20042;-69
2023/08/26 12:34:04;;;;;;;425.92;166.13;;;;;;;-140.66;100.00;55571.53;5117007;28;20015;-69
2023/08/26 12:37:48;;;;;;;137.68;19.27;;;;;;;-140.66;100.00;55571.53;5117087;28;20027;-70
2023/08/26 12:41:35;;;;;;;9.63;3.67;;;;;;;-140.66;100.00;55571.53;5117793;28;20049;-69
2023/08/26 12:45:20;;;;;;;5.38;3.80;;;;;;;-140.66;100.00;55571.53;5116664;28;20118;-70
2023/08/26 12:49:00;;;;;;;508.02;477.80;;;;;;;-140.66;100.00;55571.53;5117231;28;20119;-69
2023/08/26 12:52:45;;;;;;;577.20;221.20;;;;;;;-140.66;100.00;55571.53;5117311;28;20314;-69
2023/08/26 12:56:23;;;;;;;1999.90;999.90;;;;;;;-140.66;100.00;55571.53;5131283;27;20032;-69
2023/08/26 13:00:09;;;;;;;182.68;74.82;;;;;;;-140.66;100.00;55571.53;5116886;28;20020;-70
2023/08/26 13:03:53;;;;;;;9.52;7.00;;;;;;;-140.66;100.00;55571.53;5130784;27;20054;-70
2023/08/26 13:07:38;;;;;;;12.15;7.15;;;;;;;-140.66;100.00;55571.53;5117183;28;20365;-72
2023/08/26 13:11:23;;;;;;;9.48;6.55;;;;;;;-140.66;100.00;55571.53;5117227;28;20028;-69
2023/08/26 13:15:05;;;;;;;10.75;6.90;;;;;;;-140.66;100.00;55571.53;5116753;28;20031;-70
2023/08/26 13:18:49;;;;;;;11.32;6.90;;;;;;;-140.66;100.00;55571.53;5115431;28;20024;-69
2023/08/26 13:22:33;;;;;;;26.95;7.72;;;;;;;-140.66;100.00;55571.53;5115867;28;20027;-69
2023/08/26 13:26:18;;;;;;;11.65;6.82;;;;;;;-140.66;100.00;55571.53;5116586;28;20063;-70
2023/08/26 13:30:02;;;;;;;11.52;6.95;;;;;;;-140.66;100.00;55571.53;5116209;28;20046;-70
2023/08/26 13:33:47;;;;;;;14.82;6.70;;;;;;;-140.66;100.00;55571.53;5115869;28;20117;-69
2023/08/26 13:37:31;;;;;;;17.25;7.05;;;;;;;-140.66;100.00;55571.53;5116417;28;20113;-70
2023/08/26 13:41:16;;;;;;;17.27;6.97;;;;;;;-140.66;100.00;55571.53;5116830;28;20028;-70
2023/08/26 13:45:00;;;;;;;11.05;7.20;;;;;;;-140.66;100.00;55571.53;5116171;28;20110;-70
2023/08/26 13:48:44;;;;;;;8.13;7.03;;;;;;;-140.66;100.00;55571.53;5115102;28;20377;-70
2023/08/26 13:52:29;;;;;;;22.92;7.30;;;;;;;-140.66;100.00;55571.53;5116296;28;20020;-69
2023/08/26 13:56:13;;;;;;;11.55;7.13;;;;;;;-140.66;100.00;55571.53;5115389;28;20024;-71
2023/08/26 13:59:57;;;;;;;21.77;7.13;;;;;;;-140.66;100.00;55571.53;5116087;28;20024;-70
2023/08/26 14:03:41;;;;;;;18.67;6.95;;;;;;;-140.66;100.00;55571.53;5114994;28;20192;-70
2023/08/26 14:07:26;;;;;;;12.00;6.55;;;;;;;-140.66;100.00;55571.53;5115754;28;20357;-70
2023/08/26 14:11:10;;;;;;;14.38;6.88;;;;;;;-140.66;100.00;55571.53;5115264;28;20031;-70
2023/08/26 14:14:54;;;;;;;14.77;6.93;;;;;;;-140.66;100.00;55571.53;5115045;28;20062;-69
2023/08/26 14:18:38;;;;;;;10.32;6.90;;;;;;;-140.66;100.00;55571.53;5115455;28;20106;-69
2023/08/26 14:22:22;;;;;;;7.38;6.13;;;;;;;-140.66;100.00;55571.53;5128978;27;20088;-69
2023/08/26 14:26:07;;;;;;;13.60;6.60;;;;;;;-140.66;100.00;55571.53;5114492;28;20423;-70
2023/08/26 14:29:52;;;;;;;10.50;6.80;;;;;;;-140.66;100.00;55571.53;5114588;28;20429;-69
2023/08/26 14:33:36;;;;;;;19.70;6.88;;;;;;;-140.66;100.00;55571.53;5115826;28;20380;-70
2023/08/26 14:37:20;;;;;;;11.70;6.20;;;;;;;-140.66;100.00;55571.53;5114386;28;20024;-70
2023/08/26 14:41:05;;;;;;;10.75;6.75;;;;;;;-140.66;100.00;55571.53;5115047;28;20107;-71
2023/08/26 14:44:49;;;;;;;21.10;6.88;;;;;;;-140.66;100.00;55571.53;5114117;28;20024;-69
2023/08/26 14:48:33;;;;;;;12.32;6.78;;;;;;;-140.66;100.00;55571.53;5114955;28;20043;-70
2023/08/26 14:52:17;;;;;;;26.35;7.75;;;;;;;-140.66;100.00;55571.53;5114232;28;20038;-69
2023/08/26 14:56:02;;;;;;;16.77;6.57;;;;;;;-140.66;100.00;55571.53;5114910;28;20111;-69
2023/08/26 14:59:47;;;;;;;13.35;6.20;;;;;;;-140.66;100.00;55571.53;5127553;27;20027;-70
2023/08/26 15:03:31;;;;;;;78.30;11.90;;;;;;;-140.66;100.00;55571.53;5115397;28;20457;-69
2023/08/26 15:07:16;;;;;;;9.25;6.35;;;;;;;-140.66;100.00;55571.53;5114959;28;20032;-69
2023/08/26 15:11:00;;;;;;;14.95;6.95;;;;;;;-140.66;100.00;55571.53;5121466;28;20054;-70
2023/08/26 15:14:45;;;;;;;11.18;6.82;;;;;;;-140.66;100.00;55571.53;5132185;28;20031;-70
2023/08/26 15:18:30;;;;;;;9.55;6.47;;;;;;;-140.66;100.00;55571.53;5147123;27;20476;-68
2023/08/26 15:22:14;;;;;;;18.05;6.55;;;;;;;-140.66;100.00;55571.53;5130941;28;20038;-70
2023/08/26 15:25:59;;;;;;;10.82;5.97;;;;;;;-140.66;100.00;55571.53;5114082;28;20081;-70
2023/08/26 15:29:45;;;;;;;14.38;6.13;;;;;;;-140.66;100.00;55571.53;5112785;28;20373;-70
2023/08/26 15:33:30;;;;;;;10.25;6.50;;;;;;;-140.66;100.00;55571.53;5113781;28;20039;-70
2023/08/26 15:37:14;;;;;;;15.15;6.60;;;;;;;-140.66;100.00;55571.53;5113489;28;20033;-68
2023/08/26 15:40:59;;;;;;;29.42;7.45;;;;;;;-140.66;100.00;55571.53;5114035;28;20024;-70
2023/08/26 15:44:44;;;;;;;8.75;6.20;;;;;;;-140.66;100.00;55571.53;5114350;28;20449;-70
2023/08/26 15:48:28;;;;;;;13.80;6.28;;;;;;;-140.66;100.00;55571.53;5113313;28;20489;-70
2023/08/26 15:52:13;;;;;;;9.05;6.50;;;;;;;-140.66;100.00;55571.53;5113889;28;20357;-70
2023/08/26 15:55:58;;;;;;;13.98;5.88;;;;;;;-140.66;100.00;55571.53;5126697;28;20034;-69
2023/08/26 15:59:42;;;;;;;16.17;6.13;;;;;;;-140.66;100.00;55571.53;5114151;28;20066;-70
2023/08/26 16:03:26;;;;;;;11.18;6.28;;;;;;;-140.66;100.00;55571.53;5113349;28;20038;-69
2023/08/26 16:07:11;;;;;;;13.98;6.18;;;;;;;-140.66;100.00;55571.53;5113448;28;20028;-71
2023/08/26 16:10:55;;;;;;;13.00;6.18;;;;;;;-140.66;100.00;55571.53;5112901;28;20028;-70
2023/08/26 16:14:39;;;;;;;13.10;6.10;;;;;;;-140.66;100.00;55571.53;5113627;28;20119;-69
2023/08/26 16:18:23;;;;;;;12.13;6.57;;;;;;;-140.66;100.00;55571.53;5113224;28;20031;-69
2023/08/26 16:22:07;;;;;;;7.97;5.72;;;;;;;-140.66;100.00;55571.53;5113581;28;20020;-70
2023/08/26 16:25:52;;;;;;;11.93;6.28;;;;;;;-140.66;100.00;55571.53;5118521;28;20023;-70
2023/08/26 16:29:37;;;;;;;9.57;5.85;;;;;;;-140.66;100.00;55571.53;5113660;28;20114;-70
2023/08/26 16:33:16;;;;;;;12.23;5.55;;;;;;;-140.66;100.00;55571.53;5127441;28;20019;-70
2023/08/26 16:37:00;;;;;;;14.48;5.70;;;;;;;-140.66;100.00;55571.53;5113396;28;20035;-69
2023/08/26 16:40:48;;;;;;;9.68;5.88;;;;;;;-140.66;100.00;55571.53;5113537;28;20099;-69
2023/08/26 16:44:33;;;;;;;12.15;6.40;;;;;;;-140.66;100.00;55571.53;5114594;28;20040;-71